ADDS METAR Data INFO
IDs: Format: Raw Decoded Include TAF

Data at: 2231 UTC 22 Aug 2017

KRKS 222154Z AUTO 26007KT 10SM CLR 29/M04 A3030 RMK AO2 SLP170 T02891044
KRKS 222054Z AUTO 30010G15KT 10SM CLR 29/M04 A3032 RMK AO2 SLP174 T02941044 58014
KRKS 221954Z AUTO VRB05KT 10SM CLR 28/M03 A3034 RMK AO2 SLP181 T02831033
KRKS 221854Z AUTO 26010G17KT 10SM CLR 27/M02 A3036 RMK AO2 SLP186 T02721022
KRKS 221754Z AUTO 28008KT 10SM CLR 26/M02 A3037 RMK AO2 SLP193 T02561017 10256 20106 58004
KRKS 221654Z AUTO VRB03KT 10SM CLR 22/01 A3038 RMK AO2 SLP201 T02220011
KRKS 221554Z AUTO VRB04KT 10SM CLR 20/02 A3039 RMK AO2 SLP203 T02000022
KRKS 221454Z AUTO 00000KT 10SM CLR 17/01 A3039 RMK AO2 SLP206 T01670011 51010
KRKS 221354Z AUTO 00000KT 10SM CLR 13/02 A3038 RMK AO2 SLP208 T01330017
KRKS 221254Z AUTO 00000KT 10SM CLR 13/01 A3036 RMK AO2 SLP195 T01330011
KRKS 221154Z AUTO 33005KT 10SM CLR 11/01 A3035 RMK AO2 SLP195 T01060011 10178 20106 53002
KRKS 221054Z AUTO 07003KT 10SM CLR 14/01 A3034 RMK AO2 SLP186 T01440011
KRKS 220954Z AUTO 12007KT 10SM CLR 14/02 A3034 RMK AO2 SLP184 T01440017
KRKS 220854Z AUTO 10004KT 10SM CLR 15/01 A3034 RMK AO2 SLP183 T01500011 53004
KRKS 220754Z AUTO 06005KT 10SM CLR 16/01 A3033 RMK AO2 SLP179 T01610006
KRKS 220654Z AUTO 08003KT 10SM CLR 18/01 A3032 RMK AO2 SLP180 T01780006 402940111
KRKS 220554Z AUTO 06006KT 10SM CLR 18/M01 A3032 RMK AO2 SLP189 T01831011 10283 20183 51014
KRKS 220454Z AUTO 34006KT 10SM CLR 19/M02 A3031 RMK AO2 SLP175 T01941022
KRKS 220354Z AUTO 29010KT 10SM CLR 22/M03 A3029 RMK AO2 SLP167 T02221033
KRKS 220254Z AUTO 29011KT 10SM CLR 23/M03 A3027 RMK AO2 SLP166 T02281033 53006
KRKS 220154Z AUTO 30007KT 10SM CLR 24/M03 A3025 RMK AO2 SLP159 T02441028
KRKS 220054Z AUTO 32004KT 10SM FEW110 27/M02 A3025 RMK AO2 SLP157 T02721022
KRKS 212354Z AUTO 26010KT 10SM SCT110 28/M03 A3025 RMK AO2 SLP152 T02831028 10294 20194 56005
KRKS 212254Z AUTO 25008KT 210V280 10SM SCT110 28/M03 A3026 RMK AO2 SLP153 T02781033
KRKS 212154Z AUTO 29012G20KT 10SM FEW110 28/M03 A3026 RMK AO2 SLP154 T02831033
KRKS 212054Z AUTO 26008KT 10SM CLR 28/M02 A3027 RMK AO2 SLP155 T02831017 58006
KRKS 211954Z AUTO 24009KT 10SM CLR 27/M01 A3029 RMK AO2 SLP165 T02671006
KRKS 211854Z AUTO VRB04KT 10SM CLR 24/01 A3029 RMK AO2 SLP165 T02440006
KRKS 211754Z AUTO 34004KT 10SM CLR 19/03 A3029 RMK AO2 SLP178 T01940033 10228 20111 58001
KRKS 211654Z AUTO 33005KT 10SM CLR 23/02 A3030 RMK AO2 SLP168 T02280022
KRKS 211554Z AUTO 34003KT 10SM CLR 21/03 A3030 RMK AO2 SLP173 T02060028
KRKS 211454Z AUTO 00000KT 10SM CLR 17/04 A3030 RMK AO2 SLP179 T01670039 52015
KRKS 211354Z AUTO 00000KT 10SM CLR 15/03 A3028 RMK AO2 SLP173 T01500028
KRKS 211254Z AUTO 17004KT 10SM CLR 13/02 A3026 RMK AO2 SLP169 T01280022
KRKS 211154Z AUTO 00000KT 10SM CLR 14/02 A3024 RMK AO2 SLP163 T01440017 10194 20139 51002
KRKS 211054Z AUTO 00000KT 10SM CLR 16/02 A3024 RMK AO2 SLP158 T01560022